sensor_id;sensor_type;location;lat;lon;timestamp;P1;durP1;ratioP1;P2;durP2;ratioP2
21905;SDS011;11117;48.644;9.006;2023-01-08T00:02:21;17.70;;;11.17;;
21905;SDS011;11117;48.644;9.006;2023-01-08T00:04:46;20.90;;;11.43;;
21905;SDS011;11117;48.644;9.006;2023-01-08T00:07:12;22.23;;;11.60;;
21905;SDS011;11117;48.644;9.006;2023-01-08T00:09:38;17.03;;;10.40;;
21905;SDS011;11117;48.644;9.006;2023-01-08T00:12:03;19.20;;;11.70;;
21905;SDS011;11117;48.644;9.006;2023-01-08T00:14:29;19.07;;;11.37;;
21905;SDS011;11117;48.644;9.006;2023-01-08T00:16:55;20.70;;;11.63;;
21905;SDS011;11117;48.644;9.006;2023-01-08T00:19:20;20.57;;;11.10;;
21905;SDS011;11117;48.644;9.006;2023-01-08T00:21:46;18.70;;;10.87;;
21905;SDS011;11117;48.644;9.006;2023-01-08T00:24:11;16.73;;;10.60;;
21905;SDS011;11117;48.644;9.006;2023-01-08T00:26:37;17.00;;;10.97;;
21905;SDS011;11117;48.644;9.006;2023-01-08T00:29:04;20.50;;;11.20;;
21905;SDS011;11117;48.644;9.006;2023-01-08T00:31:29;21.00;;;11.47;;
21905;SDS011;11117;48.644;9.006;2023-01-08T00:33:55;19.60;;;10.80;;
21905;SDS011;11117;48.644;9.006;2023-01-08T00:36:21;16.83;;;10.53;;
21905;SDS011;11117;48.644;9.006;2023-01-08T00:38:46;19.17;;;11.67;;
21905;SDS011;11117;48.644;9.006;2023-01-08T00:41:13;19.33;;;11.40;;
21905;SDS011;11117;48.644;9.006;2023-01-08T00:43:39;18.87;;;11.20;;
21905;SDS011;11117;48.644;9.006;2023-01-08T00:46:05;19.40;;;10.87;;
21905;SDS011;11117;48.644;9.006;2023-01-08T00:48:31;17.80;;;10.67;;
21905;SDS011;11117;48.644;9.006;2023-01-08T00:50:59;16.87;;;10.37;;
21905;SDS011;11117;48.644;9.006;2023-01-08T00:53:26;18.83;;;10.60;;
21905;SDS011;11117;48.644;9.006;2023-01-08T00:55:58;22.83;;;10.70;;
21905;SDS011;11117;48.644;9.006;2023-01-08T00:58:24;17.67;;;10.23;;
21905;SDS011;11117;48.644;9.006;2023-01-08T01:00:50;22.20;;;10.83;;
21905;SDS011;11117;48.644;9.006;2023-01-08T01:03:15;18.90;;;10.90;;
21905;SDS011;11117;48.644;9.006;2023-01-08T01:05:41;20.60;;;11.27;;
21905;SDS011;11117;48.644;9.006;2023-01-08T01:08:06;20.00;;;11.23;;
21905;SDS011;11117;48.644;9.006;2023-01-08T01:10:32;17.43;;;10.87;;
21905;SDS011;11117;48.644;9.006;2023-01-08T01:12:57;18.70;;;10.30;;
21905;SDS011;11117;48.644;9.006;2023-01-08T01:15:23;18.20;;;9.73;;
21905;SDS011;11117;48.644;9.006;2023-01-08T01:17:49;15.43;;;9.50;;
21905;SDS011;11117;48.644;9.006;2023-01-08T01:20:15;15.73;;;9.40;;
21905;SDS011;11117;48.644;9.006;2023-01-08T01:22:41;17.00;;;10.27;;
21905;SDS011;11117;48.644;9.006;2023-01-08T01:25:07;17.00;;;9.57;;
21905;SDS011;11117;48.644;9.006;2023-01-08T01:27:33;18.50;;;10.53;;
21905;SDS011;11117;48.644;9.006;2023-01-08T01:29:59;16.67;;;9.87;;
21905;SDS011;11117;48.644;9.006;2023-01-08T01:32:25;14.97;;;9.63;;
21905;SDS011;11117;48.644;9.006;2023-01-08T01:34:50;14.90;;;9.40;;
21905;SDS011;11117;48.644;9.006;2023-01-08T01:37:16;14.67;;;9.80;;
21905;SDS011;11117;48.644;9.006;2023-01-08T01:39:42;15.53;;;9.00;;
21905;SDS011;11117;48.644;9.006;2023-01-08T01:42:11;16.37;;;9.30;;
21905;SDS011;11117;48.644;9.006;2023-01-08T01:55:38;14.73;;;9.63;;
21905;SDS011;11117;48.644;9.006;2023-01-08T01:58:09;18.13;;;9.17;;
21905;SDS011;11117;48.644;9.006;2023-01-08T02:00:40;15.20;;;9.13;;
21905;SDS011;11117;48.644;9.006;2023-01-08T02:03:08;15.97;;;9.33;;
21905;SDS011;11117;48.644;9.006;2023-01-08T02:08:32;13.87;;;9.17;;
21905;SDS011;11117;48.644;9.006;2023-01-08T02:11:32;14.80;;;8.80;;
21905;SDS011;11117;48.644;9.006;2023-01-08T02:14:16;15.53;;;9.20;;
21905;SDS011;11117;48.644;9.006;2023-01-08T02:16:55;18.07;;;9.50;;
21905;SDS011;11117;48.644;9.006;2023-01-08T02:22:36;16.70;;;8.87;;
21905;SDS011;11117;48.644;9.006;2023-01-08T02:27:34;13.63;;;8.70;;
21905;SDS011;11117;48.644;9.006;2023-01-08T02:30:02;13.47;;;8.27;;
21905;SDS011;11117;48.644;9.006;2023-01-08T02:32:32;13.27;;;7.90;;
21905;SDS011;11117;48.644;9.006;2023-01-08T02:35:01;12.83;;;7.73;;
21905;SDS011;11117;48.644;9.006;2023-01-08T02:37:27;12.27;;;6.90;;
21905;SDS011;11117;48.644;9.006;2023-01-08T02:45:29;13.67;;;7.20;;
21905;SDS011;11117;48.644;9.006;2023-01-08T02:48:16;12.80;;;6.87;;
21905;SDS011;11117;48.644;9.006;2023-01-08T02:50:53;12.43;;;7.60;;
21905;SDS011;11117;48.644;9.006;2023-01-08T02:53:25;13.97;;;7.90;;
21905;SDS011;11117;48.644;9.006;2023-01-08T02:55:55;12.43;;;7.30;;
21905;SDS011;11117;48.644;9.006;2023-01-08T02:58:26;14.73;;;8.10;;
21905;SDS011;11117;48.644;9.006;2023-01-08T03:00:54;12.30;;;8.07;;
21905;SDS011;11117;48.644;9.006;2023-01-08T03:03:24;15.73;;;8.80;;
21905;SDS011;11117;48.644;9.006;2023-01-08T03:05:54;14.53;;;8.90;;
21905;SDS011;11117;48.644;9.006;2023-01-08T03:08:21;15.77;;;8.77;;
21905;SDS011;11117;48.644;9.006;2023-01-08T03:19:31;15.73;;;9.50;;
21905;SDS011;11117;48.644;9.006;2023-01-08T03:21:59;14.40;;;8.90;;
21905;SDS011;11117;48.644;9.006;2023-01-08T03:24:27;16.43;;;8.83;;
21905;SDS011;11117;48.644;9.006;2023-01-08T03:26:58;14.87;;;8.83;;
21905;SDS011;11117;48.644;9.006;2023-01-08T03:29:28;14.97;;;8.87;;
21905;SDS011;11117;48.644;9.006;2023-01-08T03:31:57;14.53;;;9.23;;
21905;SDS011;11117;48.644;9.006;2023-01-08T03:34:26;14.00;;;8.57;;
21905;SDS011;11117;48.644;9.006;2023-01-08T03:36:56;13.83;;;8.57;;
21905;SDS011;11117;48.644;9.006;2023-01-08T03:39:32;14.17;;;8.87;;
21905;SDS011;11117;48.644;9.006;2023-01-08T03:42:19;12.17;;;8.10;;
21905;SDS011;11117;48.644;9.006;2023-01-08T03:44:46;15.03;;;8.03;;
21905;SDS011;11117;48.644;9.006;2023-01-08T03:47:12;14.37;;;9.23;;
21905;SDS011;11117;48.644;9.006;2023-01-08T03:49:39;13.23;;;8.13;;
21905;SDS011;11117;48.644;9.006;2023-01-08T03:52:07;13.13;;;8.37;;
21905;SDS011;11117;48.644;9.006;2023-01-08T03:54:34;12.37;;;7.67;;
21905;SDS011;11117;48.644;9.006;2023-01-08T03:57:00;11.33;;;7.50;;
21905;SDS011;11117;48.644;9.006;2023-01-08T03:59:26;14.00;;;8.03;;
21905;SDS011;11117;48.644;9.006;2023-01-08T04:01:52;10.97;;;7.80;;
21905;SDS011;11117;48.644;9.006;2023-01-08T04:04:18;12.57;;;7.53;;
21905;SDS011;11117;48.644;9.006;2023-01-08T04:06:44;12.23;;;7.60;;
21905;SDS011;11117;48.644;9.006;2023-01-08T04:09:09;10.97;;;7.03;;
21905;SDS011;11117;48.644;9.006;2023-01-08T04:11:35;14.50;;;7.10;;
21905;SDS011;11117;48.644;9.006;2023-01-08T04:14:00;11.30;;;7.07;;
21905;SDS011;11117;48.644;9.006;2023-01-08T04:16:26;14.23;;;7.23;;
21905;SDS011;11117;48.644;9.006;2023-01-08T04:18:52;15.00;;;7.63;;
21905;SDS011;11117;48.644;9.006;2023-01-08T04:21:18;12.23;;;7.27;;
21905;SDS011;11117;48.644;9.006;2023-01-08T04:23:43;14.43;;;7.07;;
21905;SDS011;11117;48.644;9.006;2023-01-08T04:26:09;10.87;;;7.17;;
21905;SDS011;11117;48.644;9.006;2023-01-08T04:28:35;10.00;;;6.90;;
21905;SDS011;11117;48.644;9.006;2023-01-08T04:31:08;12.37;;;7.60;;
21905;SDS011;11117;48.644;9.006;2023-01-08T04:33:34;10.43;;;7.00;;
21905;SDS011;11117;48.644;9.006;2023-01-08T04:35:59;12.93;;;8.23;;
21905;SDS011;11117;48.644;9.006;2023-01-08T04:38:25;12.20;;;7.40;;
21905;SDS011;11117;48.644;9.006;2023-01-08T04:40:58;12.10;;;7.30;;
21905;SDS011;11117;48.644;9.006;2023-01-08T04:43:24;10.90;;;6.13;;
21905;SDS011;11117;48.644;9.006;2023-01-08T04:45:51;12.10;;;5.80;;
21905;SDS011;11117;48.644;9.006;2023-01-08T04:48:16;9.00;;;5.77;;
21905;SDS011;11117;48.644;9.006;2023-01-08T04:50:42;9.17;;;5.50;;
21905;SDS011;11117;48.644;9.006;2023-01-08T04:53:08;8.30;;;5.13;;
21905;SDS011;11117;48.644;9.006;2023-01-08T04:55:33;10.23;;;5.10;;
21905;SDS011;11117;48.644;9.006;2023-01-08T04:57:59;7.77;;;4.57;;
21905;SDS011;11117;48.644;9.006;2023-01-08T05:00:24;6.50;;;4.67;;
21905;SDS011;11117;48.644;9.006;2023-01-08T05:02:50;6.07;;;4.10;;
21905;SDS011;11117;48.644;9.006;2023-01-08T05:05:16;6.87;;;4.30;;
21905;SDS011;11117;48.644;9.006;2023-01-08T05:07:41;5.77;;;4.10;;
21905;SDS011;11117;48.644;9.006;2023-01-08T05:10:07;7.13;;;4.17;;
21905;SDS011;11117;48.644;9.006;2023-01-08T05:12:33;8.10;;;4.07;;
21905;SDS011;11117;48.644;9.006;2023-01-08T05:14:58;7.00;;;4.00;;
21905;SDS011;11117;48.644;9.006;2023-01-08T05:17:24;6.23;;;4.10;;
21905;SDS011;11117;48.644;9.006;2023-01-08T05:19:49;6.27;;;4.23;;
21905;SDS011;11117;48.644;9.006;2023-01-08T05:22:15;6.80;;;4.03;;
21905;SDS011;11117;48.644;9.006;2023-01-08T05:24:41;6.87;;;4.23;;
21905;SDS011;11117;48.644;9.006;2023-01-08T05:27:06;8.93;;;3.90;;
21905;SDS011;11117;48.644;9.006;2023-01-08T05:29:32;5.33;;;3.50;;
21905;SDS011;11117;48.644;9.006;2023-01-08T05:31:57;5.13;;;3.30;;
21905;SDS011;11117;48.644;9.006;2023-01-08T05:34:23;5.27;;;3.30;;
21905;SDS011;11117;48.644;9.006;2023-01-08T05:36:48;8.17;;;3.00;;
21905;SDS011;11117;48.644;9.006;2023-01-08T05:39:14;4.87;;;2.90;;
21905;SDS011;11117;48.644;9.006;2023-01-08T05:41:40;5.60;;;2.93;;
21905;SDS011;11117;48.644;9.006;2023-01-08T05:44:05;4.83;;;3.20;;
21905;SDS011;11117;48.644;9.006;2023-01-08T05:46:31;4.80;;;2.87;;
21905;SDS011;11117;48.644;9.006;2023-01-08T05:48:56;4.63;;;3.30;;
21905;SDS011;11117;48.644;9.006;2023-01-08T05:51:22;6.00;;;3.07;;
21905;SDS011;11117;48.644;9.006;2023-01-08T05:53:48;5.20;;;3.10;;
21905;SDS011;11117;48.644;9.006;2023-01-08T05:56:13;4.10;;;3.00;;
21905;SDS011;11117;48.644;9.006;2023-01-08T05:58:39;4.93;;;2.93;;
21905;SDS011;11117;48.644;9.006;2023-01-08T06:01:12;4.17;;;2.30;;
21905;SDS011;11117;48.644;9.006;2023-01-08T06:03:39;3.53;;;2.30;;
21905;SDS011;11117;48.644;9.006;2023-01-08T06:06:05;2.73;;;2.20;;
21905;SDS011;11117;48.644;9.006;2023-01-08T06:08:31;3.30;;;2.00;;
21905;SDS011;11117;48.644;9.006;2023-01-08T06:10:58;3.07;;;2.00;;
21905;SDS011;11117;48.644;9.006;2023-01-08T06:13:25;2.10;;;1.80;;
21905;SDS011;11117;48.644;9.006;2023-01-08T06:15:51;2.63;;;2.10;;
21905;SDS011;11117;48.644;9.006;2023-01-08T06:18:16;4.17;;;2.07;;
21905;SDS011;11117;48.644;9.006;2023-01-08T06:20:42;3.80;;;2.10;;
21905;SDS011;11117;48.644;9.006;2023-01-08T06:23:08;4.03;;;2.20;;
21905;SDS011;11117;48.644;9.006;2023-01-08T06:25:37;2.20;;;1.77;;
21905;SDS011;11117;48.644;9.006;2023-01-08T06:28:03;2.20;;;1.77;;
21905;SDS011;11117;48.644;9.006;2023-01-08T06:30:29;3.33;;;2.30;;
21905;SDS011;11117;48.644;9.006;2023-01-08T06:32:58;3.77;;;2.47;;
21905;SDS011;11117;48.644;9.006;2023-01-08T06:35:27;4.93;;;2.20;;
21905;SDS011;11117;48.644;9.006;2023-01-08T06:37:55;3.40;;;2.17;;
21905;SDS011;11117;48.644;9.006;2023-01-08T06:40:21;3.60;;;2.13;;
21905;SDS011;11117;48.644;9.006;2023-01-08T06:42:47;5.23;;;2.53;;
21905;SDS011;11117;48.644;9.006;2023-01-08T06:45:13;5.23;;;2.70;;
21905;SDS011;11117;48.644;9.006;2023-01-08T06:47:39;3.17;;;2.40;;
21905;SDS011;11117;48.644;9.006;2023-01-08T06:50:04;4.30;;;2.23;;
21905;SDS011;11117;48.644;9.006;2023-01-08T06:52:30;3.80;;;2.33;;
21905;SDS011;11117;48.644;9.006;2023-01-08T06:54:55;3.00;;;2.30;;
21905;SDS011;11117;48.644;9.006;2023-01-08T06:57:21;2.87;;;2.07;;
21905;SDS011;11117;48.644;9.006;2023-01-08T06:59:47;3.17;;;2.27;;
21905;SDS011;11117;48.644;9.006;2023-01-08T07:02:13;3.07;;;2.40;;
21905;SDS011;11117;48.644;9.006;2023-01-08T07:04:43;2.83;;;2.13;;
21905;SDS011;11117;48.644;9.006;2023-01-08T07:07:12;3.40;;;2.37;;
21905;SDS011;11117;48.644;9.006;2023-01-08T07:09:39;4.77;;;2.20;;
21905;SDS011;11117;48.644;9.006;2023-01-08T07:12:06;3.27;;;1.70;;
21905;SDS011;11117;48.644;9.006;2023-01-08T07:14:35;5.53;;;2.10;;
21905;SDS011;11117;48.644;9.006;2023-01-08T07:17:00;4.50;;;2.23;;
21905;SDS011;11117;48.644;9.006;2023-01-08T07:19:26;2.27;;;1.90;;
21905;SDS011;11117;48.644;9.006;2023-01-08T07:21:51;6.17;;;2.10;;
21905;SDS011;11117;48.644;9.006;2023-01-08T07:24:17;3.07;;;1.83;;
21905;SDS011;11117;48.644;9.006;2023-01-08T07:26:42;6.07;;;2.00;;
21905;SDS011;11117;48.644;9.006;2023-01-08T07:29:08;2.07;;;1.67;;
21905;SDS011;11117;48.644;9.006;2023-01-08T07:31:33;2.30;;;1.60;;
21905;SDS011;11117;48.644;9.006;2023-01-08T07:33:59;3.93;;;2.00;;
21905;SDS011;11117;48.644;9.006;2023-01-08T07:36:25;2.27;;;1.73;;
21905;SDS011;11117;48.644;9.006;2023-01-08T07:38:50;3.63;;;1.50;;
21905;SDS011;11117;48.644;9.006;2023-01-08T07:41:16;2.50;;;2.00;;
21905;SDS011;11117;48.644;9.006;2023-01-08T07:43:42;4.53;;;1.60;;
21905;SDS011;11117;48.644;9.006;2023-01-08T07:46:08;2.03;;;1.60;;
21905;SDS011;11117;48.644;9.006;2023-01-08T07:48:34;2.53;;;1.60;;
21905;SDS011;11117;48.644;9.006;2023-01-08T07:51:04;3.43;;;1.90;;
21905;SDS011;11117;48.644;9.006;2023-01-08T07:53:31;2.10;;;1.63;;
21905;SDS011;11117;48.644;9.006;2023-01-08T07:55:57;4.37;;;1.70;;
21905;SDS011;11117;48.644;9.006;2023-01-08T07:58:27;4.40;;;1.83;;
21905;SDS011;11117;48.644;9.006;2023-01-08T08:00:53;2.83;;;1.90;;
21905;SDS011;11117;48.644;9.006;2023-01-08T08:03:19;2.40;;;1.57;;
21905;SDS011;11117;48.644;9.006;2023-01-08T08:05:45;2.77;;;1.63;;
21905;SDS011;11117;48.644;9.006;2023-01-08T08:08:10;2.10;;;1.40;;
21905;SDS011;11117;48.644;9.006;2023-01-08T08:10:37;2.40;;;1.67;;
21905;SDS011;11117;48.644;9.006;2023-01-08T08:13:03;2.70;;;1.47;;
21905;SDS011;11117;48.644;9.006;2023-01-08T08:15:29;2.20;;;1.63;;
21905;SDS011;11117;48.644;9.006;2023-01-08T08:17:55;2.50;;;1.43;;
21905;SDS011;11117;48.644;9.006;2023-01-08T08:20:20;1.90;;;1.40;;
21905;SDS011;11117;48.644;9.006;2023-01-08T08:22:46;5.60;;;1.90;;
21905;SDS011;11117;48.644;9.006;2023-01-08T08:25:11;2.37;;;1.33;;
21905;SDS011;11117;48.644;9.006;2023-01-08T08:27:37;2.47;;;1.70;;
21905;SDS011;11117;48.644;9.006;2023-01-08T08:30:03;2.53;;;1.60;;
21905;SDS011;11117;48.644;9.006;2023-01-08T08:32:29;1.80;;;1.33;;
21905;SDS011;11117;48.644;9.006;2023-01-08T08:34:55;1.90;;;1.30;;
21905;SDS011;11117;48.644;9.006;2023-01-08T08:37:20;1.23;;;1.13;;
21905;SDS011;11117;48.644;9.006;2023-01-08T08:39:46;2.83;;;1.67;;
21905;SDS011;11117;48.644;9.006;2023-01-08T08:42:11;3.20;;;1.53;;
21905;SDS011;11117;48.644;9.006;2023-01-08T08:44:37;2.50;;;1.33;;
21905;SDS011;11117;48.644;9.006;2023-01-08T08:47:05;2.70;;;1.70;;
21905;SDS011;11117;48.644;9.006;2023-01-08T08:49:31;6.67;;;1.60;;
21905;SDS011;11117;48.644;9.006;2023-01-08T08:51:57;1.47;;;1.30;;
21905;SDS011;11117;48.644;9.006;2023-01-08T08:54:22;6.20;;;1.63;;
21905;SDS011;11117;48.644;9.006;2023-01-08T08:56:48;2.67;;;1.40;;
21905;SDS011;11117;48.644;9.006;2023-01-08T08:59:13;1.70;;;1.40;;
21905;SDS011;11117;48.644;9.006;2023-01-08T09:01:39;2.30;;;1.50;;
21905;SDS011;11117;48.644;9.006;2023-01-08T09:04:04;2.00;;;1.50;;
21905;SDS011;11117;48.644;9.006;2023-01-08T09:06:30;2.50;;;1.50;;
21905;SDS011;11117;48.644;9.006;2023-01-08T09:08:56;1.90;;;1.30;;
21905;SDS011;11117;48.644;9.006;2023-01-08T09:11:21;2.67;;;1.47;;
21905;SDS011;11117;48.644;9.006;2023-01-08T09:13:47;2.10;;;1.40;;
21905;SDS011;11117;48.644;9.006;2023-01-08T09:16:12;2.23;;;1.40;;
21905;SDS011;11117;48.644;9.006;2023-01-08T09:18:38;2.77;;;1.50;;
21905;SDS011;11117;48.644;9.006;2023-01-08T09:21:04;2.13;;;1.60;;
21905;SDS011;11117;48.644;9.006;2023-01-08T09:23:30;4.43;;;1.60;;
21905;SDS011;11117;48.644;9.006;2023-01-08T09:25:59;2.13;;;1.37;;
21905;SDS011;11117;48.644;9.006;2023-01-08T09:28:26;2.27;;;1.50;;
21905;SDS011;11117;48.644;9.006;2023-01-08T09:30:51;3.70;;;1.73;;
21905;SDS011;11117;48.644;9.006;2023-01-08T09:33:17;2.30;;;1.60;;
21905;SDS011;11117;48.644;9.006;2023-01-08T09:35:43;3.33;;;1.87;;
21905;SDS011;11117;48.644;9.006;2023-01-08T09:38:09;2.83;;;1.43;;
21905;SDS011;11117;48.644;9.006;2023-01-08T09:40:36;2.00;;;1.50;;
21905;SDS011;11117;48.644;9.006;2023-01-08T09:43:09;2.83;;;1.60;;
21905;SDS011;11117;48.644;9.006;2023-01-08T09:45:42;2.23;;;1.50;;
21905;SDS011;11117;48.644;9.006;2023-01-08T09:48:13;3.13;;;1.97;;
21905;SDS011;11117;48.644;9.006;2023-01-08T09:50:42;4.00;;;2.57;;
21905;SDS011;11117;48.644;9.006;2023-01-08T09:53:25;3.57;;;1.67;;
21905;SDS011;11117;48.644;9.006;2023-01-08T09:55:55;2.53;;;1.70;;
21905;SDS011;11117;48.644;9.006;2023-01-08T09:58:44;2.50;;;1.63;;
21905;SDS011;11117;48.644;9.006;2023-01-08T10:01:13;1.57;;;1.37;;
21905;SDS011;11117;48.644;9.006;2023-01-08T10:03:42;4.83;;;1.60;;
21905;SDS011;11117;48.644;9.006;2023-01-08T10:06:12;1.40;;;1.30;;
21905;SDS011;11117;48.644;9.006;2023-01-08T10:08:39;2.93;;;1.40;;
21905;SDS011;11117;48.644;9.006;2023-01-08T10:11:05;2.37;;;1.43;;
21905;SDS011;11117;48.644;9.006;2023-01-08T10:13:33;3.33;;;1.40;;
21905;SDS011;11117;48.644;9.006;2023-01-08T10:16:05;2.83;;;1.37;;
21905;SDS011;11117;48.644;9.006;2023-01-08T10:18:32;4.67;;;2.10;;
21905;SDS011;11117;48.644;9.006;2023-01-08T10:20:59;1.83;;;1.27;;
21905;SDS011;11117;48.644;9.006;2023-01-08T10:23:25;2.83;;;1.37;;
21905;SDS011;11117;48.644;9.006;2023-01-08T10:25:55;1.63;;;1.20;;
21905;SDS011;11117;48.644;9.006;2023-01-08T10:28:23;2.13;;;1.30;;
21905;SDS011;11117;48.644;9.006;2023-01-08T10:30:51;2.60;;;1.63;;
21905;SDS011;11117;48.644;9.006;2023-01-08T10:33:31;2.03;;;1.17;;
21905;SDS011;11117;48.644;9.006;2023-01-08T10:36:05;1.80;;;1.20;;
21905;SDS011;11117;48.644;9.006;2023-01-08T10:38:35;1.50;;;1.30;;
21905;SDS011;11117;48.644;9.006;2023-01-08T10:41:04;2.20;;;1.30;;
21905;SDS011;11117;48.644;9.006;2023-01-08T10:43:49;2.13;;;1.10;;
21905;SDS011;11117;48.644;9.006;2023-01-08T10:46:18;3.20;;;1.20;;
21905;SDS011;11117;48.644;9.006;2023-01-08T10:48:57;1.50;;;1.20;;
21905;SDS011;11117;48.644;9.006;2023-01-08T10:51:27;1.90;;;1.07;;
21905;SDS011;11117;48.644;9.006;2023-01-08T10:53:55;2.40;;;1.10;;
21905;SDS011;11117;48.644;9.006;2023-01-08T10:56:25;0.93;;;0.90;;
21905;SDS011;11117;48.644;9.006;2023-01-08T10:58:52;1.77;;;0.90;;
21905;SDS011;11117;48.644;9.006;2023-01-08T11:01:21;1.00;;;0.90;;
21905;SDS011;11117;48.644;9.006;2023-01-08T11:03:49;1.73;;;1.00;;
21905;SDS011;11117;48.644;9.006;2023-01-08T11:06:26;1.63;;;0.97;;
21905;SDS011;11117;48.644;9.006;2023-01-08T11:09:02;1.40;;;1.00;;
21905;SDS011;11117;48.644;9.006;2023-01-08T11:11:37;1.93;;;1.00;;
21905;SDS011;11117;48.644;9.006;2023-01-08T11:14:04;3.10;;;1.20;;
21905;SDS011;11117;48.644;9.006;2023-01-08T11:16:39;1.40;;;1.00;;
21905;SDS011;11117;48.644;9.006;2023-01-08T11:19:16;3.07;;;1.07;;
21905;SDS011;11117;48.644;9.006;2023-01-08T11:22:03;2.23;;;0.87;;
21905;SDS011;11117;48.644;9.006;2023-01-08T11:24:34;1.83;;;1.10;;
21905;SDS011;11117;48.644;9.006;2023-01-08T11:29:30;1.63;;;1.00;;
21905;SDS011;11117;48.644;9.006;2023-01-08T11:32:25;1.97;;;1.30;;
21905;SDS011;11117;48.644;9.006;2023-01-08T11:37:55;2.27;;;1.30;;
21905;SDS011;11117;48.644;9.006;2023-01-08T11:46:08;1.50;;;1.00;;
21905;SDS011;11117;48.644;9.006;2023-01-08T11:51:28;2.03;;;1.23;;
21905;SDS011;11117;48.644;9.006;2023-01-08T11:57:07;2.30;;;1.33;;
21905;SDS011;11117;48.644;9.006;2023-01-08T12:07:39;1.60;;;1.17;;
21905;SDS011;11117;48.644;9.006;2023-01-08T12:10:19;1.50;;;1.13;;
21905;SDS011;11117;48.644;9.006;2023-01-08T12:12:59;2.13;;;1.40;;
21905;SDS011;11117;48.644;9.006;2023-01-08T12:20:46;1.27;;;1.10;;
21905;SDS011;11117;48.644;9.006;2023-01-08T12:26:25;3.27;;;1.57;;
21905;SDS011;11117;48.644;9.006;2023-01-08T12:32:24;1.73;;;1.20;;
21905;SDS011;11117;48.644;9.006;2023-01-08T12:34:59;1.10;;;1.00;;
21905;SDS011;11117;48.644;9.006;2023-01-08T12:37:53;2.03;;;1.10;;
21905;SDS011;11117;48.644;9.006;2023-01-08T12:40:32;1.40;;;1.20;;
21905;SDS011;11117;48.644;9.006;2023-01-08T12:43:21;1.30;;;1.10;;
21905;SDS011;11117;48.644;9.006;2023-01-08T12:45:52;1.70;;;1.23;;
21905;SDS011;11117;48.644;9.006;2023-01-08T12:48:26;1.00;;;0.90;;
21905;SDS011;11117;48.644;9.006;2023-01-08T12:53:55;1.13;;;1.00;;
21905;SDS011;11117;48.644;9.006;2023-01-08T12:56:36;1.00;;;0.90;;
21905;SDS011;11117;48.644;9.006;2023-01-08T12:59:41;1.80;;;1.10;;
21905;SDS011;11117;48.644;9.006;2023-01-08T13:04:57;1.53;;;1.30;;
21905;SDS011;11117;48.644;9.006;2023-01-08T13:09:55;1.70;;;1.10;;
21905;SDS011;11117;48.644;9.006;2023-01-08T13:12:36;1.63;;;1.10;;
21905;SDS011;11117;48.644;9.006;2023-01-08T13:15:05;2.40;;;1.60;;
21905;SDS011;11117;48.644;9.006;2023-01-08T13:17:32;2.17;;;1.40;;
21905;SDS011;11117;48.644;9.006;2023-01-08T13:19:59;1.77;;;1.50;;
21905;SDS011;11117;48.644;9.006;2023-01-08T13:22:30;2.10;;;1.60;;
21905;SDS011;11117;48.644;9.006;2023-01-08T13:27:40;2.70;;;1.40;;
21905;SDS011;11117;48.644;9.006;2023-01-08T13:32:54;3.00;;;1.80;;
21905;SDS011;11117;48.644;9.006;2023-01-08T13:43:49;1.53;;;1.20;;
21905;SDS011;11117;48.644;9.006;2023-01-08T13:46:13;1.60;;;1.20;;
21905;SDS011;11117;48.644;9.006;2023-01-08T13:54:07;1.30;;;1.00;;
21905;SDS011;11117;48.644;9.006;2023-01-08T13:56:43;1.47;;;1.00;;
21905;SDS011;11117;48.644;9.006;2023-01-08T14:01:54;1.40;;;1.03;;
21905;SDS011;11117;48.644;9.006;2023-01-08T14:04:21;1.07;;;0.90;;
21905;SDS011;11117;48.644;9.006;2023-01-08T14:06:47;0.70;;;0.70;;
21905;SDS011;11117;48.644;9.006;2023-01-08T14:09:18;1.43;;;0.90;;
21905;SDS011;11117;48.644;9.006;2023-01-08T14:11:49;0.90;;;0.70;;
21905;SDS011;11117;48.644;9.006;2023-01-08T14:14:21;1.53;;;1.00;;
21905;SDS011;11117;48.644;9.006;2023-01-08T14:16:49;0.70;;;0.70;;
21905;SDS011;11117;48.644;9.006;2023-01-08T14:19:17;2.00;;;1.07;;
21905;SDS011;11117;48.644;9.006;2023-01-08T14:21:51;2.57;;;0.90;;
21905;SDS011;11117;48.644;9.006;2023-01-08T14:24:24;2.40;;;0.90;;
21905;SDS011;11117;48.644;9.006;2023-01-08T14:26:57;1.00;;;0.90;;
21905;SDS011;11117;48.644;9.006;2023-01-08T14:29:25;1.30;;;0.93;;
21905;SDS011;11117;48.644;9.006;2023-01-08T14:31:54;1.90;;;1.40;;
21905;SDS011;11117;48.644;9.006;2023-01-08T14:34:22;2.13;;;1.40;;
21905;SDS011;11117;48.644;9.006;2023-01-08T14:36:53;1.97;;;1.40;;
21905;SDS011;11117;48.644;9.006;2023-01-08T14:39:32;1.20;;;0.90;;
21905;SDS011;11117;48.644;9.006;2023-01-08T14:42:47;1.40;;;1.10;;
21905;SDS011;11117;48.644;9.006;2023-01-08T14:45:02;1.20;;;0.90;;
21905;SDS011;11117;48.644;9.006;2023-01-08T14:47:33;2.37;;;1.10;;
21905;SDS011;11117;48.644;9.006;2023-01-08T14:50:17;2.23;;;1.40;;
21905;SDS011;11117;48.644;9.006;2023-01-08T14:52:56;1.00;;;0.90;;
21905;SDS011;11117;48.644;9.006;2023-01-08T14:55:24;1.03;;;0.90;;
21905;SDS011;11117;48.644;9.006;2023-01-08T14:57:51;2.30;;;1.40;;
21905;SDS011;11117;48.644;9.006;2023-01-08T15:00:23;2.47;;;1.40;;
21905;SDS011;11117;48.644;9.006;2023-01-08T15:02:51;1.77;;;1.20;;
21905;SDS011;11117;48.644;9.006;2023-01-08T15:05:18;1.43;;;1.00;;
21905;SDS011;11117;48.644;9.006;2023-01-08T15:10:34;2.30;;;1.00;;
21905;SDS011;11117;48.644;9.006;2023-01-08T15:13:00;4.30;;;1.33;;
21905;SDS011;11117;48.644;9.006;2023-01-08T15:15:26;1.87;;;1.20;;
21905;SDS011;11117;48.644;9.006;2023-01-08T15:17:52;2.53;;;1.30;;
21905;SDS011;11117;48.644;9.006;2023-01-08T15:20:18;1.97;;;1.30;;
21905;SDS011;11117;48.644;9.006;2023-01-08T15:22:46;2.93;;;1.20;;
21905;SDS011;11117;48.644;9.006;2023-01-08T15:25:15;4.87;;;1.90;;
21905;SDS011;11117;48.644;9.006;2023-01-08T15:27:48;5.97;;;4.30;;
21905;SDS011;11117;48.644;9.006;2023-01-08T15:30:36;8.77;;;4.40;;
21905;SDS011;11117;48.644;9.006;2023-01-08T15:33:21;8.37;;;3.97;;
21905;SDS011;11117;48.644;9.006;2023-01-08T15:35:48;4.83;;;2.23;;
21905;SDS011;11117;48.644;9.006;2023-01-08T15:38:15;1.97;;;1.50;;
21905;SDS011;11117;48.644;9.006;2023-01-08T15:40:41;3.10;;;1.83;;
21905;SDS011;11117;48.644;9.006;2023-01-08T15:43:09;11.83;;;5.53;;
21905;SDS011;11117;48.644;9.006;2023-01-08T15:45:39;5.83;;;2.67;;
21905;SDS011;11117;48.644;9.006;2023-01-08T15:48:07;2.23;;;1.50;;
21905;SDS011;11117;48.644;9.006;2023-01-08T15:50:34;1.97;;;1.30;;
21905;SDS011;11117;48.644;9.006;2023-01-08T15:53:05;4.40;;;2.00;;
21905;SDS011;11117;48.644;9.006;2023-01-08T15:55:36;12.23;;;4.13;;
21905;SDS011;11117;48.644;9.006;2023-01-08T15:58:02;11.57;;;4.20;;
21905;SDS011;11117;48.644;9.006;2023-01-08T16:00:28;2.90;;;2.03;;
21905;SDS011;11117;48.644;9.006;2023-01-08T16:02:54;2.40;;;1.43;;
21905;SDS011;11117;48.644;9.006;2023-01-08T16:05:21;2.60;;;1.40;;
21905;SDS011;11117;48.644;9.006;2023-01-08T16:07:47;3.40;;;1.80;;
21905;SDS011;11117;48.644;9.006;2023-01-08T16:10:16;3.27;;;2.23;;
21905;SDS011;11117;48.644;9.006;2023-01-08T16:12:42;6.57;;;3.27;;
21905;SDS011;11117;48.644;9.006;2023-01-08T16:15:08;2.63;;;1.87;;
21905;SDS011;11117;48.644;9.006;2023-01-08T16:17:35;3.57;;;1.77;;
21905;SDS011;11117;48.644;9.006;2023-01-08T16:20:01;7.73;;;3.77;;
21905;SDS011;11117;48.644;9.006;2023-01-08T16:22:28;5.60;;;3.23;;
21905;SDS011;11117;48.644;9.006;2023-01-08T16:24:53;4.33;;;2.27;;
21905;SDS011;11117;48.644;9.006;2023-01-08T16:27:19;3.63;;;2.70;;
21905;SDS011;11117;48.644;9.006;2023-01-08T16:29:44;2.77;;;1.87;;
21905;SDS011;11117;48.644;9.006;2023-01-08T16:32:10;3.80;;;2.30;;
21905;SDS011;11117;48.644;9.006;2023-01-08T16:34:36;2.80;;;1.93;;
21905;SDS011;11117;48.644;9.006;2023-01-08T16:37:01;2.27;;;1.93;;